Time;durP1;ratioP1;P1;durP2;ratioP2;P2;SDS_P1;SDS_P2;PMS_P1;PMS_P2;Temp;Humidity;BMP_temperature;BMP_pressure;BME280_temperature;BME280_humidity;BME280_pressure;Samples;Min_cycle;Max_cycle;Signal;HPM_P1;HPM_P2
2022/08/21 00:01:05;;;;;;;7.53;3.40;;;16.60;99.90;;;;;;5051565;28;20056;-66
2022/08/21 00:03:32;;;;;;;11.15;4.03;;;16.60;99.90;;;;;;5051973;28;20037;-67
2022/08/21 00:05:57;;;;;;;5.38;3.70;;;16.60;99.90;;;;;;5053101;28;20059;-67
2022/08/21 00:08:23;;;;;;;8.82;3.80;;;16.60;99.90;;;;;;5052870;28;20578;-67
2022/08/21 00:10:49;;;;;;;6.00;4.18;;;16.70;99.90;;;;;;5051411;28;20114;-67
2022/08/21 00:13:15;;;;;;;10.23;4.72;;;16.50;99.90;;;;;;5053146;28;20074;-67
2022/08/21 00:15:41;;;;;;;5.80;3.60;;;16.40;99.90;;;;;;5053042;28;20048;-67
2022/08/21 00:18:10;;;;;;;10.82;4.60;;;16.60;99.90;;;;;;5052950;28;20059;-66
2022/08/21 00:20:37;;;;;;;11.75;4.32;;;16.60;99.90;;;;;;5052407;28;20087;-67
2022/08/21 00:23:03;;;;;;;7.32;4.25;;;16.50;99.90;;;;;;5052704;28;20080;-67
2022/08/21 00:25:29;;;;;;;9.10;3.90;;;16.40;99.90;;;;;;5052904;28;20043;-66
2022/08/21 00:27:56;;;;;;;10.07;4.05;;;16.40;99.90;;;;;;5052767;28;20036;-67
2022/08/21 00:30:23;;;;;;;11.63;3.97;;;16.40;99.90;;;;;;5052282;28;20033;-67
2022/08/21 00:32:49;;;;;;;7.28;4.45;;;16.40;99.90;;;;;;5052718;28;20121;-67
2022/08/21 00:35:17;;;;;;;6.40;3.83;;;16.50;99.90;;;;;;5051318;28;20045;-67
2022/08/21 00:37:43;;;;;;;9.43;4.20;;;16.40;99.90;;;;;;5052414;28;20529;-67
2022/08/21 00:40:13;;;;;;;8.23;3.95;;;16.50;99.90;;;;;;5052473;28;20041;-67
2022/08/21 00:42:39;;;;;;;9.23;3.65;;;16.50;99.90;;;;;;5052326;28;20041;-67
2022/08/21 00:45:06;;;;;;;12.20;4.03;;;16.40;99.90;;;;;;5052536;28;20037;-66
2022/08/21 00:47:32;;;;;;;9.80;3.92;;;16.40;99.90;;;;;;5052281;28;20040;-67
2022/08/21 00:49:58;;;;;;;7.68;3.40;;;16.50;99.90;;;;;;5051870;28;20095;-67
2022/08/21 00:52:29;;;;;;;7.82;3.72;;;16.50;99.90;;;;;;5051097;28;20041;-67
2022/08/21 00:54:58;;;;;;;8.45;3.40;;;16.40;99.90;;;;;;5052210;28;20045;-67
2022/08/21 00:57:28;;;;;;;8.80;3.13;;;16.50;99.90;;;;;;5052109;28;20499;-67
2022/08/21 00:59:58;;;;;;;9.65;3.10;;;16.50;99.90;;;;;;5050609;28;20044;-67
2022/08/21 01:02:24;;;;;;;8.82;3.13;;;16.50;99.90;;;;;;5051995;28;20578;-67
2022/08/21 01:04:50;;;;;;;8.43;3.35;;;16.50;99.90;;;;;;5051894;28;20056;-67
2022/08/21 01:07:17;;;;;;;8.23;3.45;;;16.40;99.90;;;;;;5050981;28;20040;-67
2022/08/21 01:09:43;;;;;;;7.22;3.00;;;16.40;99.90;;;;;;5051685;28;20041;-67
2022/08/21 01:12:09;;;;;;;6.00;3.63;;;16.50;99.90;;;;;;5051941;28;20112;-67
2022/08/21 01:14:35;;;;;;;8.13;3.38;;;16.50;99.90;;;;;;5033505;28;20508;-67
2022/08/21 01:17:03;;;;;;;5.95;2.97;;;16.40;99.90;;;;;;5050572;28;20045;-67
2022/08/21 01:19:29;;;;;;;6.70;3.90;;;16.30;99.90;;;;;;5051439;28;20036;-67
2022/08/21 01:21:55;;;;;;;8.27;3.45;;;16.30;99.90;;;;;;5051890;28;20135;-67
2022/08/21 01:24:21;;;;;;;6.78;3.78;;;16.20;99.90;;;;;;5050510;28;20106;-67
2022/08/21 01:26:47;;;;;;;5.97;3.30;;;16.30;99.90;;;;;;5051838;28;20673;-67
2022/08/21 01:29:35;;;;;;;5.85;3.40;;;16.30;99.90;;;;;;5050064;28;20077;-67
2022/08/21 01:32:12;;;;;;;8.07;4.13;;;16.20;99.90;;;;;;5051480;28;20542;-66
2022/08/21 01:34:42;;;;;;;6.38;3.97;;;16.20;99.90;;;;;;5051624;28;20490;-66
2022/08/21 01:37:08;;;;;;;8.30;4.47;;;16.20;99.90;;;;;;5051775;28;20041;-67
2022/08/21 01:39:34;;;;;;;7.85;3.40;;;16.10;99.90;;;;;;5050239;28;20051;-67
2022/08/21 01:42:01;;;;;;;10.10;3.60;;;16.20;99.90;;;;;;5051364;28;20090;-67
2022/08/21 01:44:27;;;;;;;10.40;3.72;;;16.20;99.90;;;;;;5051538;28;20550;-67
2022/08/21 01:46:53;;;;;;;6.90;3.67;;;16.10;99.90;;;;;;5050368;28;20044;-67
2022/08/21 01:49:20;;;;;;;9.95;3.55;;;16.00;99.90;;;;;;5051161;28;20382;-67
2022/08/21 01:51:45;;;;;;;11.98;3.72;;;15.90;99.90;;;;;;5051464;28;20037;-67
2022/08/21 01:54:11;;;;;;;8.63;3.63;;;15.90;99.90;;;;;;5051503;28;20039;-67
2022/08/21 01:56:39;;;;;;;7.22;4.20;;;16.00;99.90;;;;;;5051439;28;20063;-67
2022/08/21 01:59:05;;;;;;;8.32;3.60;;;16.00;99.90;;;;;;5051532;28;20128;-66
2022/08/21 02:01:31;;;;;;;8.50;3.72;;;16.00;99.90;;;;;;5051282;28;20124;-67
2022/08/21 02:03:59;;;;;;;7.40;3.90;;;16.00;99.90;;;;;;5051570;28;20648;-66
2022/08/21 02:06:24;;;;;;;7.97;3.83;;;15.90;99.90;;;;;;5052340;28;20036;-67
2022/08/21 02:08:50;;;;;;;10.98;3.90;;;15.80;99.90;;;;;;5051504;28;20557;-67
2022/08/21 02:11:16;;;;;;;10.40;3.85;;;15.90;99.90;;;;;;5049921;28;20052;-66
2022/08/21 02:13:41;;;;;;;6.53;3.97;;;15.80;99.90;;;;;;5050119;28;20036;-67
2022/08/21 02:16:07;;;;;;;10.00;4.00;;;15.80;99.90;;;;;;5051358;28;20075;-67
2022/08/21 02:18:33;;;;;;;6.90;3.92;;;15.80;99.90;;;;;;5050101;28;20037;-67
2022/08/21 02:20:59;;;;;;;7.20;4.28;;;15.70;99.90;;;;;;5050940;28;20055;-67
2022/08/21 02:23:25;;;;;;;7.18;3.83;;;15.80;99.90;;;;;;5051219;28;20033;-67
2022/08/21 02:25:50;;;;;;;8.02;3.80;;;15.70;99.90;;;;;;5051127;28;20072;-66
2022/08/21 02:28:16;;;;;;;9.02;4.35;;;15.80;99.90;;;;;;5054538;28;20041;-67
2022/08/21 02:30:45;;;;;;;11.55;5.07;;;15.70;99.90;;;;;;5054773;28;20055;-67
2022/08/21 02:33:12;;;;;;;10.07;3.97;;;15.70;99.90;;;;;;5055011;28;20037;-67
2022/08/21 02:35:41;;;;;;;8.35;5.53;;;15.60;99.90;;;;;;5054944;28;20037;-67
2022/08/21 02:38:09;;;;;;;8.80;4.68;;;15.50;99.90;;;;;;5053719;28;20498;-67
2022/08/21 02:40:39;;;;;;;10.45;4.55;;;15.50;99.90;;;;;;5052984;28;20410;-67
2022/08/21 02:43:06;;;;;;;10.00;4.97;;;15.50;99.90;;;;;;5054732;28;20521;-67
2022/08/21 02:45:33;;;;;;;7.35;5.28;;;15.60;99.90;;;;;;5053400;28;20102;-66
2022/08/21 02:48:02;;;;;;;10.90;5.22;;;15.60;99.90;;;;;;5054597;28;20103;-66
2022/08/21 02:50:35;;;;;;;10.75;5.43;;;15.60;99.90;;;;;;5052914;28;20033;-67
2022/08/21 02:53:02;;;;;;;10.23;5.30;;;15.60;99.90;;;;;;5053209;28;20037;-66
2022/08/21 02:55:30;;;;;;;7.47;5.88;;;15.50;99.90;;;;;;5053199;28;20041;-67
2022/08/21 02:57:57;;;;;;;11.98;5.70;;;15.40;99.90;;;;;;5054547;28;20032;-67
2022/08/21 03:00:24;;;;;;;11.65;5.53;;;15.40;99.90;;;;;;5052810;28;20478;-67
2022/08/21 03:02:51;;;;;;;7.93;5.13;;;15.40;99.90;;;;;;5054305;28;20402;-67
2022/08/21 03:05:17;;;;;;;9.93;5.28;;;15.40;99.90;;;;;;5054478;28;20114;-67
2022/08/21 03:07:44;;;;;;;10.90;5.32;;;15.50;99.90;;;;;;5052845;28;20506;-67
2022/08/21 03:10:10;;;;;;;8.75;5.47;;;15.30;99.90;;;;;;5052587;28;20092;-66
2022/08/21 03:12:36;;;;;;;10.23;4.82;;;15.30;99.90;;;;;;5053063;28;20506;-67
2022/08/21 03:15:05;;;;;;;6.95;4.63;;;15.30;99.90;;;;;;5054344;28;20029;-67
2022/08/21 03:17:30;;;;;;;7.68;5.75;;;15.30;99.90;;;;;;5054172;28;20449;-67
2022/08/21 03:19:56;;;;;;;7.00;4.65;;;15.20;99.90;;;;;;5052418;28;20041;-66
2022/08/21 03:22:22;;;;;;;9.25;5.70;;;15.30;99.90;;;;;;5053874;28;20116;-67
2022/08/21 03:24:47;;;;;;;12.43;4.90;;;15.10;99.90;;;;;;5054088;28;20029;-67
2022/08/21 03:27:13;;;;;;;10.23;5.40;;;15.20;99.90;;;;;;5053856;28;20045;-67
2022/08/21 03:29:39;;;;;;;9.02;5.40;;;15.10;99.90;;;;;;5052286;28;20044;-69
2022/08/21 03:32:09;;;;;;;8.02;5.57;;;15.20;99.90;;;;;;5053952;28;20069;-67
2022/08/21 03:34:35;;;;;;;18.70;5.65;;;15.10;99.90;;;;;;5054034;28;20029;-66
2022/08/21 03:37:00;;;;;;;10.35;5.95;;;15.00;99.90;;;;;;5053482;28;20410;-67
2022/08/21 03:39:26;;;;;;;13.40;4.95;;;15.10;99.90;;;;;;5053410;28;20123;-67
2022/08/21 03:41:53;;;;;;;11.25;5.43;;;15.10;99.90;;;;;;5076587;22;20049;-69
2022/08/21 03:44:19;;;;;;;10.73;5.53;;;15.10;99.90;;;;;;5053633;28;20037;-69
2022/08/21 03:46:44;;;;;;;10.15;5.68;;;15.10;99.90;;;;;;5053078;28;20040;-69
2022/08/21 03:49:10;;;;;;;8.45;5.93;;;14.90;99.90;;;;;;5052054;28;20128;-69
2022/08/21 03:51:36;;;;;;;8.98;5.57;;;15.00;99.90;;;;;;5052196;28;20037;-69
2022/08/21 03:54:01;;;;;;;11.63;6.18;;;15.00;99.90;;;;;;5053344;28;20131;-69
2022/08/21 03:56:27;;;;;;;12.57;6.45;;;15.00;99.90;;;;;;5053522;28;20029;-69
2022/08/21 03:58:53;;;;;;;12.65;6.85;;;15.00;99.90;;;;;;5053391;28;20033;-69
2022/08/21 04:01:19;;;;;;;12.10;6.85;;;15.00;99.90;;;;;;5052870;28;20047;-69
2022/08/21 04:03:44;;;;;;;11.80;6.85;;;14.80;99.90;;;;;;5053071;28;20033;-68
2022/08/21 04:06:10;;;;;;;11.02;6.07;;;14.80;99.90;;;;;;5052959;28;20041;-69
2022/08/21 04:08:35;;;;;;;10.18;7.18;;;14.80;99.90;;;;;;5053117;28;20037;-69
2022/08/21 04:11:01;;;;;;;11.85;6.68;;;14.80;99.90;;;;;;5052782;28;20551;-69
2022/08/21 04:13:27;;;;;;;13.95;6.40;;;14.70;99.90;;;;;;5053060;28;20060;-69
2022/08/21 04:15:54;;;;;;;13.02;6.80;;;14.70;99.90;;;;;;5052975;28;20479;-69
2022/08/21 04:18:20;;;;;;;8.65;6.38;;;14.80;99.90;;;;;;5052745;28;20426;-69
2022/08/21 04:20:49;;;;;;;10.27;6.00;;;14.70;99.90;;;;;;5052691;28;20124;-69
2022/08/21 04:23:15;;;;;;;11.32;6.43;;;14.70;99.90;;;;;;5052816;28;20398;-69
2022/08/21 04:25:41;;;;;;;10.52;6.53;;;14.60;99.90;;;;;;5052903;28;20032;-69
2022/08/21 04:28:06;;;;;;;10.43;6.07;;;14.70;99.90;;;;;;5051471;28;20083;-69
2022/08/21 04:30:32;;;;;;;8.70;6.43;;;14.70;99.90;;;;;;5052339;28;20107;-69
2022/08/21 04:32:58;;;;;;;12.40;7.05;;;14.70;99.90;;;;;;5052493;28;20406;-69
2022/08/21 04:35:26;;;;;;;7.93;6.30;;;14.60;99.90;;;;;;5052769;28;20037;-68
2022/08/21 04:37:52;;;;;;;10.05;6.40;;;14.60;99.90;;;;;;5052739;28;20115;-69
2022/08/21 04:40:19;;;;;;;9.35;6.55;;;14.60;99.90;;;;;;5052293;28;20116;-69
2022/08/21 04:42:51;;;;;;;10.05;6.80;;;14.60;99.90;;;;;;5052286;28;20048;-69
2022/08/21 04:45:20;;;;;;;12.07;6.85;;;14.60;99.90;;;;;;5052271;28;20116;-69
2022/08/21 04:47:48;;;;;;;10.93;7.05;;;14.70;99.90;;;;;;5052129;28;20079;-69
2022/08/21 04:50:14;;;;;;;10.18;6.57;;;14.70;99.90;;;;;;5051401;28;20029;-69
2022/08/21 04:52:39;;;;;;;11.35;6.35;;;14.70;99.90;;;;;;5052258;28;20116;-69
2022/08/21 04:55:05;;;;;;;11.38;6.57;;;14.70;99.90;;;;;;5052313;28;20108;-69
2022/08/21 04:57:31;;;;;;;9.10;6.63;;;14.60;99.90;;;;;;5052232;28;20433;-68
2022/08/21 04:59:56;;;;;;;11.60;6.22;;;14.60;99.90;;;;;;5051730;28;20082;-69
2022/08/21 05:02:22;;;;;;;10.13;6.68;;;14.70;99.90;;;;;;5051884;28;20040;-69
2022/08/21 05:04:53;;;;;;;13.95;6.70;;;14.80;99.90;;;;;;5052065;28;20148;-69
2022/08/21 05:07:26;;;;;;;13.02;6.82;;;14.80;99.90;;;;;;5050748;28;20053;-68
2022/08/21 05:09:52;;;;;;;8.57;6.43;;;14.90;99.90;;;;;;5051752;28;20048;-69
2022/08/21 05:12:18;;;;;;;8.20;6.60;;;15.10;99.90;;;;;;5051846;28;20104;-69
2022/08/21 05:14:44;;;;;;;11.98;6.93;;;15.10;99.90;;;;;;5051824;28;20052;-69
2022/08/21 05:17:10;;;;;;;11.38;7.32;;;15.30;99.90;;;;;;5052024;28;20036;-69
2022/08/21 05:19:36;;;;;;;9.05;6.70;;;15.60;99.90;;;;;;5051684;28;20037;-69
2022/08/21 05:22:01;;;;;;;9.98;6.93;;;15.50;99.90;;;;;;5051924;28;20087;-69
2022/08/21 05:24:28;;;;;;;14.43;7.18;;;15.90;99.90;;;;;;5051890;28;20738;-69
2022/08/21 05:26:53;;;;;;;9.18;6.57;;;15.90;99.90;;;;;;5051681;28;20577;-69
2022/08/21 05:29:19;;;;;;;9.65;5.57;;;16.20;99.90;;;;;;5051222;28;20045;-69
2022/08/21 05:31:46;;;;;;;8.52;6.10;;;16.30;99.90;;;;;;5051860;28;20094;-69
2022/08/21 05:34:14;;;;;;;12.30;6.90;;;16.60;99.90;;;;;;5051847;28;20049;-69
2022/08/21 05:36:39;;;;;;;6.50;5.30;;;16.70;99.90;;;;;;5051769;28;20040;-69
2022/08/21 05:39:05;;;;;;;9.07;5.60;;;16.90;99.90;;;;;;5051578;28;20123;-69
2022/08/21 05:41:30;;;;;;;10.82;6.10;;;17.10;99.90;;;;;;5051272;28;20041;-69
2022/08/21 05:43:56;;;;;;;8.60;5.93;;;17.30;99.90;;;;;;5051442;28;20076;-69
2022/08/21 05:46:21;;;;;;;9.45;6.35;;;17.50;99.90;;;;;;5050302;28;20086;-69
2022/08/21 05:48:47;;;;;;;8.05;5.60;;;17.70;99.90;;;;;;5051613;28;20037;-69
2022/08/21 05:51:14;;;;;;;11.60;6.00;;;18.00;99.90;;;;;;5051185;28;20525;-69
2022/08/21 05:53:41;;;;;;;15.07;6.43;;;18.10;99.90;;;;;;5051666;28;20095;-69
2022/08/21 05:56:08;;;;;;;10.60;5.57;;;18.40;99.90;;;;;;5051513;28;20037;-69
2022/08/21 05:58:34;;;;;;;13.35;5.88;;;18.60;99.90;;;;;;5051371;28;20120;-69
2022/08/21 06:01:02;;;;;;;10.23;4.85;;;18.80;99.90;;;;;;5052660;28;20059;-69
2022/08/21 06:03:34;;;;;;;8.30;5.15;;;19.00;99.90;;;;;;5054255;28;20079;-69
2022/08/21 06:06:00;;;;;;;7.65;5.38;;;19.20;99.90;;;;;;5055449;28;20486;-69
2022/08/21 06:08:28;;;;;;;11.73;5.38;;;19.40;99.90;;;;;;5055387;28;20049;-69
2022/08/21 06:10:55;;;;;;;14.25;5.88;;;19.80;99.90;;;;;;5053528;28;20044;-69
2022/08/21 06:13:22;;;;;;;8.40;4.53;;;19.80;99.90;;;;;;5055397;28;20088;-69
2022/08/21 06:15:48;;;;;;;12.30;5.53;;;20.10;99.90;;;;;;5055406;28;20039;-69
2022/08/21 06:18:14;;;;;;;11.48;5.10;;;20.20;99.90;;;;;;5055351;28;20047;-70
2022/08/21 06:20:41;;;;;;;8.73;4.78;;;20.30;99.90;;;;;;5053885;28;20064;-69
2022/08/21 06:23:07;;;;;;;10.07;4.93;;;20.60;99.90;;;;;;5055085;28;20048;-69
2022/08/21 06:25:32;;;;;;;10.93;4.20;;;20.60;99.90;;;;;;5055000;28;20033;-69
2022/08/21 06:28:10;;;;;;;9.40;4.90;;;20.60;99.90;;;;;;5055095;28;20116;-70
2022/08/21 06:30:37;;;;;;;7.97;4.80;;;20.80;99.90;;;;;;5053386;28;20041;-70
2022/08/21 06:33:03;;;;;;;8.30;3.97;;;20.80;99.90;;;;;;5054955;28;20068;-69
2022/08/21 06:35:29;;;;;;;9.27;4.07;;;20.90;99.90;;;;;;5054970;28;20071;-69
2022/08/21 06:37:56;;;;;;;7.53;3.15;;;20.90;99.90;;;;;;5054867;28;20482;-69
2022/08/21 06:40:22;;;;;;;9.82;3.72;;;21.00;99.90;;;;;;5054705;28;20162;-69
2022/08/21 06:42:48;;;;;;;11.57;4.13;;;21.10;99.90;;;;;;5054503;28;20065;-69
2022/08/21 06:45:14;;;;;;;9.07;4.35;;;21.10;99.60;;;;;;5054859;28;20033;-70
2022/08/21 06:47:40;;;;;;;9.73;4.47;;;21.30;99.40;;;;;;5054888;28;20407;-70
2022/08/21 06:50:07;;;;;;;9.98;4.28;;;21.60;99.20;;;;;;5054358;28;20126;-70
2022/08/21 06:52:34;;;;;;;8.70;3.25;;;21.60;98.80;;;;;;5054460;28;20041;-70
2022/08/21 06:55:00;;;;;;;10.15;4.20;;;21.80;98.60;;;;;;5054732;28;20048;-70
2022/08/21 06:57:25;;;;;;;7.32;4.00;;;21.90;98.40;;;;;;5054557;28;20049;-70
2022/08/21 06:59:51;;;;;;;9.85;3.20;;;21.90;97.60;;;;;;5054316;28;20664;-70
2022/08/21 07:02:17;;;;;;;10.52;3.38;;;22.20;97.70;;;;;;5054399;28;20043;-70
2022/08/21 07:04:43;;;;;;;8.05;3.35;;;22.30;97.30;;;;;;5054460;28;20048;-70
2022/08/21 07:07:08;;;;;;;9.00;3.25;;;22.20;96.90;;;;;;5048606;28;20040;-70
2022/08/21 07:09:34;;;;;;;6.90;2.45;;;22.30;96.40;;;;;;5054105;28;20041;-70
2022/08/21 07:12:01;;;;;;;9.52;3.53;;;22.10;95.90;;;;;;5053640;28;20399;-70
2022/08/21 07:14:27;;;;;;;10.52;3.55;;;22.20;96.10;;;;;;5054102;28;20029;-69
2022/08/21 07:16:52;;;;;;;9.20;2.53;;;22.30;95.90;;;;;;5054146;28;20590;-70
2022/08/21 07:19:18;;;;;;;8.45;3.03;;;22.30;95.70;;;;;;5053822;28;20037;-70
2022/08/21 07:21:44;;;;;;;9.13;2.90;;;22.50;96.10;;;;;;5053917;28;20079;-70
2022/08/21 07:24:10;;;;;;;9.32;2.75;;;22.50;95.40;;;;;;5054135;28;20161;-69
2022/08/21 07:26:36;;;;;;;7.93;2.25;;;22.50;94.90;;;;;;5052813;28;20037;-70
2022/08/21 07:29:01;;;;;;;7.30;2.58;;;22.70;95.00;;;;;;5053947;28;20037;-69
2022/08/21 07:31:28;;;;;;;7.57;2.45;;;23.10;94.90;;;;;;5053618;28;20495;-69
2022/08/21 07:33:54;;;;;;;8.88;2.50;;;23.30;94.30;;;;;;5053783;28;20041;-69
2022/08/21 07:36:20;;;;;;;9.65;2.38;;;23.40;93.60;;;;;;5053704;28;20033;-70
2022/08/21 07:38:46;;;;;;;10.15;2.45;;;23.50;93.20;;;;;;5053934;28;20051;-69
2022/08/21 07:41:17;;;;;;;9.10;2.40;;;23.50;92.40;;;;;;5047140;28;20048;-70
2022/08/21 07:43:43;;;;;;;8.48;2.38;;;23.60;91.70;;;;;;5042603;28;20041;-70
2022/08/21 07:46:10;;;;;;;6.72;2.90;;;23.60;91.80;;;;;;5033709;28;20045;-70
2022/08/21 07:48:36;;;;;;;7.95;2.30;;;23.60;91.50;;;;;;5032344;28;20045;-69
2022/08/21 07:51:11;;;;;;;9.68;2.30;;;23.60;91.70;;;;;;5033127;28;20041;-70
2022/08/21 07:53:37;;;;;;;4.03;1.55;;;23.60;90.80;;;;;;5042928;28;20045;-69
2022/08/21 07:56:05;;;;;;;9.20;2.55;;;23.50;90.30;;;;;;5041356;28;20064;-70
2022/08/21 07:58:31;;;;;;;7.80;2.53;;;23.60;90.00;;;;;;5032447;28;20049;-69
2022/08/21 08:00:57;;;;;;;6.78;3.47;;;23.60;89.50;;;;;;5039246;28;20080;-70
2022/08/21 08:03:24;;;;;;;6.57;2.47;;;23.70;88.50;;;;;;5048976;28;20065;-70
2022/08/21 08:05:50;;;;;;;6.75;2.35;;;23.60;88.10;;;;;;5052469;28;20037;-70
2022/08/21 08:08:16;;;;;;;5.80;2.50;;;23.70;88.60;;;;;;5051215;28;20041;-70
2022/08/21 08:10:43;;;;;;;11.23;2.80;;;24.00;87.80;;;;;;5039199;28;20036;-70
2022/08/21 08:13:09;;;;;;;8.30;3.08;;;23.80;86.20;;;;;;5052981;28;20147;-69
2022/08/21 08:15:36;;;;;;;10.13;2.88;;;23.80;85.50;;;;;;5052663;28;20068;-70
2022/08/21 08:18:02;;;;;;;8.32;3.35;;;23.50;84.80;;;;;;5052455;28;20517;-69
2022/08/21 08:20:29;;;;;;;4.97;2.58;;;23.40;84.90;;;;;;5052299;28;20033;-70
2022/08/21 08:22:55;;;;;;;9.15;2.65;;;23.40;85.40;;;;;;5052746;28;20041;-70
2022/08/21 08:25:22;;;;;;;6.32;2.47;;;23.50;85.80;;;;;;5052615;28;20111;-70
2022/08/21 08:27:48;;;;;;;11.90;2.78;;;23.80;85.80;;;;;;5052601;28;20083;-70
2022/08/21 08:30:16;;;;;;;9.07;2.90;;;23.90;86.00;;;;;;5051798;28;20524;-71
2022/08/21 08:32:42;;;;;;;10.60;2.95;;;24.00;84.10;;;;;;5051272;28;20072;-71
2022/08/21 08:35:09;;;;;;;7.35;2.15;;;24.30;84.00;;;;;;5052522;28;20479;-70
2022/08/21 08:37:37;;;;;;;4.95;2.17;;;24.50;82.40;;;;;;5052316;28;20083;-71
2022/08/21 08:40:04;;;;;;;8.68;2.50;;;24.50;81.80;;;;;;5052095;28;20043;-70
2022/08/21 08:42:35;;;;;;;11.02;2.33;;;24.60;81.60;;;;;;5051852;28;20056;-70
2022/08/21 08:45:06;;;;;;;7.97;2.17;;;24.70;79.70;;;;;;5052172;28;20040;-70
2022/08/21 08:47:37;;;;;;;7.60;2.20;;;24.60;78.50;;;;;;5052266;28;20072;-70
2022/08/21 08:50:08;;;;;;;5.80;1.90;;;24.60;78.90;;;;;;5051963;28;20049;-70
2022/08/21 08:52:39;;;;;;;9.10;2.15;;;24.40;78.00;;;;;;5052061;28;20037;-70
2022/08/21 08:55:16;;;;;;;8.40;2.40;;;24.20;78.50;;;;;;5052132;28;20041;-70
2022/08/21 08:57:45;;;;;;;6.80;1.80;;;24.60;78.30;;;;;;5051843;28;20040;-70
2022/08/21 09:00:13;;;;;;;8.90;1.92;;;24.80;79.80;;;;;;5051980;28;20119;-69
2022/08/21 09:02:41;;;;;;;9.75;2.15;;;25.10;79.20;;;;;;5051796;28;20044;-70
2022/08/21 09:05:12;;;;;;;6.20;2.05;;;25.30;78.30;;;;;;5051986;28;20411;-71
2022/08/21 09:07:51;;;;;;;6.07;1.80;;;25.40;77.20;;;;;;5051921;28;20048;-70
2022/08/21 09:10:43;;;;;;;5.00;1.88;;;25.50;76.20;;;;;;5036541;28;20080;-70
2022/08/21 09:13:46;;;;;;;7.00;1.83;;;25.60;76.10;;;;;;5051792;28;20055;-70
2022/08/21 09:16:25;;;;;;;6.63;1.63;;;25.00;73.60;;;;;;5050408;28;20155;-70
2022/08/21 09:18:59;;;;;;;5.68;1.77;;;25.10;74.60;;;;;;5038772;28;20047;-71
2022/08/21 09:21:41;;;;;;;6.55;2.05;;;25.40;75.80;;;;;;5051412;28;20051;-71
2022/08/21 09:24:21;;;;;;;8.20;1.92;;;25.50;74.10;;;;;;5039956;28;20581;-70
2022/08/21 09:27:08;;;;;;;11.65;3.22;;;25.60;73.90;;;;;;5051341;28;20108;-70
2022/08/21 09:29:39;;;;;;;4.07;1.40;;;25.40;72.20;;;;;;5051372;28;20044;-70
2022/08/21 09:32:17;;;;;;;8.55;1.85;;;25.40;74.70;;;;;;5051492;28;20693;-70
2022/08/21 09:34:54;;;;;;;7.00;2.22;;;25.40;76.70;;;;;;5051341;28;20562;-71
2022/08/21 09:37:19;;;;;;;6.88;1.83;;;25.40;76.70;;;;;;5051402;28;20037;-70
2022/08/21 09:39:45;;;;;;;7.68;2.00;;;25.30;76.00;;;;;;5050890;28;20617;-70
2022/08/21 09:42:11;;;;;;;10.65;2.60;;;25.30;76.70;;;;;;5073150;22;20484;-68
2022/08/21 09:44:42;;;;;;;7.75;2.22;;;25.20;76.20;;;;;;5049853;28;20048;-68
2022/08/21 09:47:12;;;;;;;8.83;2.13;;;25.10;75.70;;;;;;5051232;28;20041;-68
2022/08/21 09:49:41;;;;;;;7.97;2.00;;;25.20;77.10;;;;;;5049036;28;20303;-67
2022/08/21 09:52:15;;;;;;;12.23;2.72;;;25.20;77.40;;;;;;5051396;28;20036;-68
2022/08/21 09:54:45;;;;;;;6.35;2.15;;;24.90;75.80;;;;;;5050007;28;20119;-68
2022/08/21 10:00:21;;;;;;;6.40;2.17;;;25.00;78.30;;;;;;5048102;28;20084;-67
2022/08/21 10:02:46;;;;;;;7.38;2.40;;;25.00;77.90;;;;;;5051026;28;20040;-68
2022/08/21 10:05:19;;;;;;;6.57;2.25;;;24.80;78.90;;;;;;5049373;28;20036;-68
2022/08/21 10:07:45;;;;;;;7.18;1.80;;;25.00;78.70;;;;;;5050731;28;20686;-67
2022/08/21 10:10:18;;;;;;;7.00;1.83;;;25.00;78.00;;;;;;5049102;28;20045;-67
2022/08/21 10:12:56;;;;;;;11.63;3.42;;;24.90;77.00;;;;;;5032925;28;20045;-67
2022/08/21 10:15:40;;;;;;;10.05;2.28;;;24.90;77.80;;;;;;5049664;28;20037;-67
2022/08/21 10:18:14;;;;;;;7.65;2.45;;;24.90;78.70;;;;;;5049526;28;20045;-66
2022/08/21 10:20:46;;;;;;;9.02;2.30;;;24.70;77.80;;;;;;5050358;28;20041;-67
2022/08/21 10:23:21;;;;;;;8.27;2.13;;;24.60;77.10;;;;;;5050236;28;20029;-67
2022/08/21 10:25:58;;;;;;;6.82;2.00;;;24.30;78.00;;;;;;5049294;28;20029;-67
2022/08/21 10:28:40;;;;;;;5.70;2.30;;;24.20;77.90;;;;;;5050437;28;20056;-67
2022/08/21 10:31:20;;;;;;;8.32;2.30;;;24.30;78.80;;;;;;5050260;28;20037;-67
2022/08/21 10:33:58;;;;;;;7.03;2.00;;;24.30;78.70;;;;;;5050712;28;20033;-66
2022/08/21 10:36:39;;;;;;;6.97;2.35;;;24.30;79.10;;;;;;5049200;28;20033;-67
2022/08/21 10:39:19;;;;;;;5.20;2.00;;;24.20;78.70;;;;;;5049089;28;20037;-67
2022/08/21 10:42:06;;;;;;;9.43;2.67;;;24.30;79.10;;;;;;5050267;28;20163;-67
2022/08/21 10:44:50;;;;;;;10.30;2.30;;;24.50;78.90;;;;;;5049432;28;20407;-67
2022/08/21 10:47:32;;;;;;;7.80;1.30;;;24.60;79.00;;;;;;5049130;28;20040;-67
2022/08/21 10:50:10;;;;;;;8.18;2.22;;;24.40;76.40;;;;;;5053767;28;20037;-68
2022/08/21 10:53:03;;;;;;;9.00;2.00;;;24.30;77.70;;;;;;5054020;28;20041;-68
2022/08/21 10:55:38;;;;;;;;;;;24.40;78.80;;;;;;5040382;28;20041;-67
2022/08/21 10:58:10;;;;;;;6.90;1.60;;;24.30;80.70;;;;;;5052611;28;19917;-67
2022/08/21 11:00:58;;;;;;;7.18;2.35;;;24.30;79.80;;;;;;5052129;28;20087;-67
2022/08/21 11:03:35;;;;;;;8.48;2.40;;;24.20;79.50;;;;;;5053921;28;20099;-67
2022/08/21 11:06:29;;;;;;;7.85;1.90;;;24.10;79.30;;;;;;5053792;28;20040;-67
2022/08/21 11:09:29;;;;;;;8.15;2.15;;;23.90;81.60;;;;;;5053566;28;20056;-67
2022/08/21 11:12:01;;;;;;;5.15;1.85;;;23.70;83.00;;;;;;5039887;28;20179;-67
2022/08/21 11:14:57;;;;;;;6.60;2.05;;;23.60;82.50;;;;;;5052517;28;20044;-67
2022/08/21 11:17:46;;;;;;;9.38;2.38;;;23.50;84.70;;;;;;5054359;28;20036;-67
2022/08/21 11:20:28;;;;;;;9.75;2.30;;;23.40;85.00;;;;;;5053669;28;20045;-67
2022/08/21 11:23:06;;;;;;;5.28;2.20;;;23.20;83.20;;;;;;5054033;28;20120;-68
2022/08/21 11:25:41;;;;;;;6.47;1.77;;;23.00;83.60;;;;;;5053188;28;20090;-67
2022/08/21 11:28:12;;;;;;;6.70;1.85;;;23.00;84.00;;;;;;5053787;28;20446;-67
2022/08/21 11:31:09;;;;;;;7.72;1.70;;;22.80;84.20;;;;;;5052298;28;20116;-67
2022/08/21 11:34:13;;;;;;;7.80;2.05;;;22.70;84.10;;;;;;5053783;28;20041;-68
2022/08/21 11:37:06;;;;;;;6.30;2.10;;;22.60;86.00;;;;;;5053783;28;20091;-69
2022/08/21 11:40:01;;;;;;;;;;;22.40;88.70;;;;;;5053851;28;20037;-67
2022/08/21 11:42:58;;;;;;;9.35;2.45;;;22.10;90.80;;;;;;5034763;28;19970;-67
2022/08/21 11:45:51;;;;;;;9.63;2.58;;;22.10;92.50;;;;;;5053706;28;20036;-67
2022/08/21 11:48:50;;;;;;;7.68;2.22;;;21.90;93.30;;;;;;5052135;28;20158;-67
2022/08/21 11:51:21;;;;;;;8.63;2.40;;;21.80;95.20;;;;;;5053215;28;20136;-66
2022/08/21 11:54:12;;;;;;;7.97;2.72;;;21.70;96.20;;;;;;5052334;28;20098;-67
2022/08/21 11:56:44;;;;;;;11.43;2.45;;;21.60;97.80;;;;;;5045729;28;20112;-67
2022/08/21 11:59:20;;;;;;;6.05;2.33;;;21.50;98.40;;;;;;5041984;28;20060;-66
2022/08/21 12:01:48;;;;;;;7.50;2.42;;;21.40;99.80;;;;;;5042535;28;20069;-67
2022/08/21 12:04:18;;;;;;;9.93;2.63;;;21.40;99.90;;;;;;5038453;28;20044;-67
2022/08/21 12:06:44;;;;;;;8.52;2.80;;;21.40;99.90;;;;;;5041596;28;20048;-66
2022/08/21 12:09:25;;;;;;;10.98;3.47;;;21.20;99.90;;;;;;5052981;28;20359;-67
2022/08/21 12:12:12;;;;;;;6.63;2.85;;;21.40;99.90;;;;;;5051904;28;20444;-67
2022/08/21 12:14:47;;;;;;;4.93;2.35;;;21.60;99.90;;;;;;5051548;28;20037;-67
2022/08/21 12:17:22;;;;;;;7.22;2.33;;;21.80;99.90;;;;;;5053005;28;20053;-67
2022/08/21 12:20:37;;;;;;;11.02;2.83;;;21.90;99.90;;;;;;5051232;28;20080;-66
2022/08/21 12:23:08;;;;;;;11.98;3.15;;;22.20;99.90;;;;;;5051401;28;20182;-67
2022/08/21 12:25:40;;;;;;;9.38;2.50;;;22.50;99.90;;;;;;5051693;28;20041;-67
2022/08/21 12:28:13;;;;;;;6.68;2.30;;;22.70;99.40;;;;;;5051654;28;20406;-67
2022/08/21 12:30:40;;;;;;;;;;;22.80;97.70;;;;;;5053248;28;20078;-67
2022/08/21 12:33:37;;;;;;;6.93;2.60;;;23.00;97.10;;;;;;5052760;28;19917;-67
2022/08/21 12:36:20;;;;;;;8.07;2.33;;;23.30;97.60;;;;;;5051171;28;20041;-67
2022/08/21 12:38:52;;;;;;;7.25;2.50;;;23.50;97.30;;;;;;5052322;28;20045;-68
2022/08/21 12:41:24;;;;;;;7.53;2.20;;;23.60;95.80;;;;;;5051152;28;20402;-68
2022/08/21 12:43:59;;;;;;;6.57;2.53;;;23.70;96.00;;;;;;5052615;28;20124;-67
2022/08/21 12:46:39;;;;;;;6.65;1.80;;;23.80;95.20;;;;;;5051232;28;20051;-67
2022/08/21 12:49:24;;;;;;;4.03;1.70;;;23.90;92.80;;;;;;5052433;28;20440;-67
2022/08/21 12:51:55;;;;;;;5.55;2.00;;;23.70;91.10;;;;;;5052434;28;20041;-67
2022/08/21 12:54:28;;;;;;;6.47;2.17;;;23.60;92.10;;;;;;5051044;28;20045;-67
2022/08/21 12:56:58;;;;;;;;;;;23.50;91.90;;;;;;5052796;28;20049;-67
2022/08/21 12:59:23;;;;;;;7.45;2.30;;;23.30;91.10;;;;;;5050668;28;19923;-67
2022/08/21 13:01:52;;;;;;;7.85;2.70;;;23.20;91.20;;;;;;5052289;28;20116;-67
2022/08/21 13:04:21;;;;;;;8.07;2.50;;;23.20;91.80;;;;;;5052002;28;20411;-68